createdAt,value
2019-03-28T00:00:00.841Z,73.00
2019-03-28T00:02:29.608Z,72.70
2019-03-28T00:04:58.467Z,73.20
2019-03-28T00:07:27.334Z,73.90
2019-03-28T00:09:56.172Z,73.90
2019-03-28T00:12:25.901Z,73.60
2019-03-28T00:14:55.204Z,72.60
2019-03-28T00:17:24.190Z,72.00
2019-03-28T00:19:53.220Z,72.20
2019-03-28T00:22:34.478Z,72.30
2019-03-28T00:25:06.417Z,72.10
2019-03-28T00:27:35.170Z,73.40
2019-03-28T00:30:05.912Z,74.40
2019-03-28T00:32:34.857Z,75.20
2019-03-28T00:35:03.986Z,77.10
2019-03-28T00:37:32.831Z,78.30
2019-03-28T00:40:01.832Z,78.20
2019-03-28T00:42:30.929Z,77.90
2019-03-28T00:44:59.913Z,76.90
2019-03-28T00:47:28.895Z,75.70
2019-03-28T00:49:57.824Z,75.70
2019-03-28T00:52:26.852Z,76.40
2019-03-28T00:54:55.886Z,76.60
2019-03-28T00:57:24.767Z,76.90
2019-03-28T00:59:55.815Z,77.60
2019-03-28T01:02:24.719Z,79.30
2019-03-28T01:04:53.503Z,79.10
2019-03-28T01:07:22.850Z,77.70
2019-03-28T01:09:51.661Z,77.60
2019-03-28T01:12:20.416Z,78.00
2019-03-28T01:14:49.203Z,78.60
2019-03-28T01:17:18.001Z,80.10
2019-03-28T01:19:46.808Z,79.40
2019-03-28T01:22:15.489Z,80.60
2019-03-28T01:24:44.217Z,79.50
2019-03-28T01:27:13.951Z,79.20
2019-03-28T01:29:43.049Z,78.60
2019-03-28T01:32:11.724Z,79.30
2019-03-28T01:34:40.479Z,80.90
2019-03-28T01:37:09.198Z,80.60
2019-03-28T01:39:38.023Z,80.00
2019-03-28T01:42:06.777Z,80.20
2019-03-28T01:44:35.519Z,80.10
2019-03-28T01:47:04.360Z,79.90
2019-03-28T01:49:33.093Z,80.10
2019-03-28T01:52:04.280Z,79.80
2019-03-28T01:54:32.590Z,79.80
2019-03-28T01:57:10.786Z,80.50
2019-03-28T01:59:33.080Z,81.40
2019-03-28T02:02:01.805Z,81.80
2019-03-28T02:04:30.476Z,82.90
2019-03-28T02:06:59.473Z,84.20
2019-03-28T02:09:28.163Z,83.60
2019-03-28T02:11:57.038Z,83.70
2019-03-28T02:14:25.824Z,83.50
2019-03-28T02:16:54.562Z,83.80
2019-03-28T02:19:23.367Z,83.90
2019-03-28T02:21:52.778Z,83.80
2019-03-28T02:24:22.034Z,84.40
2019-03-28T02:26:50.817Z,85.10
2019-03-28T02:29:19.725Z,85.00
2019-03-28T02:31:48.700Z,84.70
2019-03-28T02:34:17.467Z,84.50
2019-03-28T02:36:46.228Z,85.00
2019-03-28T02:39:14.952Z,84.90
2019-03-28T02:41:43.673Z,84.50
2019-03-28T02:44:12.491Z,83.80
2019-03-28T02:46:41.323Z,83.10
2019-03-28T02:49:10.149Z,82.70
2019-03-28T02:51:38.882Z,83.60
2019-03-28T02:54:07.612Z,83.60
2019-03-28T02:56:37.133Z,84.20
2019-03-28T02:59:06.011Z,84.40
2019-03-28T03:01:34.780Z,84.30
2019-03-28T03:04:03.643Z,84.50
2019-03-28T03:06:32.364Z,85.00
2019-03-28T03:09:01.081Z,85.10
2019-03-28T03:11:30.003Z,85.30
2019-03-28T03:13:58.771Z,85.10
2019-03-28T03:16:27.616Z,84.10
2019-03-28T03:18:56.437Z,84.30
2019-03-28T03:21:25.220Z,83.50
2019-03-28T03:23:54.109Z,83.40
2019-03-28T03:26:22.926Z,84.10
2019-03-28T03:28:51.858Z,85.00
2019-03-28T03:31:21.890Z,85.90
2019-03-28T03:33:51.291Z,86.00
2019-03-28T03:36:20.226Z,86.50
2019-03-28T03:38:48.967Z,86.30
2019-03-28T03:41:17.843Z,87.30
2019-03-28T03:43:46.834Z,87.30
2019-03-28T03:46:15.621Z,86.90
2019-03-28T03:48:44.395Z,86.20
2019-03-28T03:51:13.226Z,86.10
2019-03-28T03:53:42.002Z,85.70
2019-03-28T03:56:10.821Z,85.60
2019-03-28T03:58:39.630Z,84.70
2019-03-28T04:01:08.362Z,83.80
2019-03-28T04:03:37.084Z,83.70
2019-03-28T04:06:05.817Z,83.60
2019-03-28T04:08:34.612Z,84.00
2019-03-28T04:11:03.320Z,84.50
2019-03-28T04:13:32.094Z,84.10
2019-03-28T04:16:00.962Z,84.30
2019-03-28T04:18:29.685Z,84.80
2019-03-28T04:20:58.505Z,85.00
2019-03-28T04:23:27.236Z,85.60
2019-03-28T04:25:56.048Z,85.30
2019-03-28T04:28:32.100Z,85.20
2019-03-28T04:30:55.653Z,84.10
2019-03-28T04:33:24.342Z,83.60
2019-03-28T04:35:53.140Z,83.80
2019-03-28T04:38:21.828Z,83.60
2019-03-28T04:40:51.680Z,83.90
2019-03-28T04:43:20.558Z,84.00
2019-03-28T04:45:49.359Z,83.80
2019-03-28T04:48:18.117Z,84.20
2019-03-28T04:50:46.928Z,85.30
2019-03-28T04:53:15.812Z,86.60
2019-03-28T04:55:44.601Z,87.50
2019-03-28T04:58:13.674Z,88.10
2019-03-28T05:00:43.388Z,87.80
2019-03-28T05:03:12.184Z,87.00
2019-03-28T05:05:41.033Z,86.70
2019-03-28T05:08:09.796Z,85.30
2019-03-28T05:10:38.534Z,84.90
2019-03-28T05:13:07.256Z,84.70
2019-03-28T05:15:36.276Z,84.40
2019-03-28T05:18:05.119Z,83.60
2019-03-28T05:20:34.677Z,83.20
2019-03-28T05:23:03.637Z,83.50
2019-03-28T05:25:32.424Z,84.70
2019-03-28T05:28:02.108Z,84.20
2019-03-28T05:30:30.947Z,84.70
2019-03-28T05:32:59.781Z,84.10
2019-03-28T05:35:28.619Z,84.00
2019-03-28T05:37:57.384Z,83.60
2019-03-28T05:40:28.283Z,83.00
2019-03-28T05:42:57.012Z,82.10
2019-03-28T05:45:25.774Z,81.90
2019-03-28T05:47:54.469Z,81.40
2019-03-28T05:50:23.250Z,80.70
2019-03-28T05:52:52.097Z,80.30
2019-03-28T05:55:20.834Z,80.70
2019-03-28T05:57:49.748Z,80.90
2019-03-28T06:00:18.523Z,80.90
2019-03-28T06:02:47.199Z,80.60
2019-03-28T06:05:16.098Z,79.50
2019-03-28T06:07:44.831Z,78.50
2019-03-28T06:10:16.240Z,77.90
2019-03-28T06:12:44.410Z,77.40
2019-03-28T06:15:13.695Z,76.80
2019-03-28T06:17:42.443Z,76.40
2019-03-28T06:20:11.681Z,77.10
2019-03-28T06:22:40.459Z,77.30
2019-03-28T06:25:09.573Z,76.80
2019-03-28T06:27:38.469Z,75.70
2019-03-28T06:30:08.283Z,74.30
2019-03-28T06:32:42.861Z,74.20
2019-03-28T06:35:08.051Z,74.90
2019-03-28T06:37:36.946Z,75.30
2019-03-28T06:40:07.080Z,75.10
2019-03-28T06:42:37.201Z,74.90
2019-03-28T06:45:06.812Z,74.30
2019-03-28T06:47:35.623Z,74.40
2019-03-28T06:50:05.148Z,74.40
2019-03-28T06:52:33.951Z,74.40
2019-03-28T06:55:02.800Z,72.30
2019-03-28T06:57:31.853Z,72.00
2019-03-28T07:00:01.676Z,71.50
2019-03-28T07:02:30.745Z,70.40
2019-03-28T07:04:59.589Z,69.30
2019-03-28T07:07:28.402Z,68.20
2019-03-28T07:09:57.159Z,68.00
2019-03-28T07:12:25.978Z,66.60
2019-03-28T07:14:55.186Z,66.30
2019-03-28T07:17:23.980Z,64.90
2019-03-28T07:19:52.697Z,63.60
2019-03-28T07:22:21.475Z,63.90
2019-03-28T07:24:50.229Z,63.50
2019-03-28T07:27:18.978Z,62.70
2019-03-28T07:29:51.156Z,63.00
2019-03-28T07:32:18.384Z,62.10
2019-03-28T07:34:48.156Z,61.30
2019-03-28T07:37:16.965Z,60.90
2019-03-28T07:39:45.737Z,61.80
2019-03-28T07:42:14.628Z,62.40
2019-03-28T07:44:43.432Z,62.40
2019-03-28T07:47:12.208Z,62.20
2019-03-28T07:49:40.973Z,62.10
2019-03-28T07:52:09.787Z,62.30
2019-03-28T07:54:39.313Z,61.80
2019-03-28T07:57:08.324Z,62.30
2019-03-28T07:59:37.687Z,62.40
2019-03-28T08:02:06.819Z,62.40
2019-03-28T08:04:35.630Z,61.30
2019-03-28T08:07:04.643Z,59.60
2019-03-28T08:09:36.842Z,58.60
2019-03-28T08:12:04.901Z,58.40
2019-03-28T08:14:33.858Z,58.60
2019-03-28T08:17:02.587Z,58.90
2019-03-28T08:19:32.382Z,59.00
2019-03-28T08:22:01.202Z,59.00
2019-03-28T08:24:30.070Z,59.00
2019-03-28T08:26:58.938Z,59.00
2019-03-28T08:29:28.448Z,59.80
2019-03-28T08:31:57.347Z,59.60
2019-03-28T08:34:26.146Z,59.80
2019-03-28T08:36:55.425Z,59.30
2019-03-28T08:39:24.288Z,59.00
2019-03-28T08:41:53.097Z,58.60
2019-03-28T08:44:22.826Z,58.20
2019-03-28T08:46:51.809Z,58.50
2019-03-28T08:49:20.678Z,58.50
2019-03-28T08:51:49.526Z,58.00
2019-03-28T08:54:19.397Z,56.90
2019-03-28T08:56:48.694Z,57.30
2019-03-28T08:59:17.467Z,56.70
2019-03-28T09:01:46.221Z,56.30
2019-03-28T09:04:15.179Z,56.70
2019-03-28T09:06:43.938Z,56.20
2019-03-28T09:09:12.852Z,55.80
2019-03-28T09:11:42.020Z,55.90
2019-03-28T09:14:10.957Z,55.90
2019-03-28T09:16:39.828Z,55.80
2019-03-28T09:19:08.702Z,55.80
2019-03-28T09:21:37.561Z,55.60
2019-03-28T09:24:07.296Z,55.20
2019-03-28T09:26:36.095Z,55.10
2019-03-28T09:29:04.880Z,54.90
2019-03-28T09:31:33.740Z,54.70
2019-03-28T09:34:02.855Z,54.70
2019-03-28T09:36:31.725Z,54.10
2019-03-28T09:39:00.738Z,54.60
2019-03-28T09:41:29.565Z,52.80
2019-03-28T09:43:58.522Z,52.40
2019-03-28T09:46:27.333Z,52.00
2019-03-28T09:48:56.397Z,52.20
2019-03-28T09:51:25.353Z,51.80
2019-03-28T09:53:54.159Z,51.70
2019-03-28T09:56:23.004Z,51.40
2019-03-28T09:58:52.023Z,51.00
2019-03-28T10:01:21.318Z,50.60
2019-03-28T10:03:51.132Z,50.30
2019-03-28T10:06:19.935Z,50.30
2019-03-28T10:08:48.781Z,50.50
2019-03-28T10:11:17.733Z,50.10
2019-03-28T10:13:46.552Z,49.80
2019-03-28T10:16:15.369Z,49.40
2019-03-28T10:18:44.235Z,49.70
2019-03-28T10:21:12.994Z,49.20
2019-03-28T10:23:44.725Z,49.10
2019-03-28T10:26:13.541Z,48.70
2019-03-28T10:28:42.665Z,47.70
2019-03-28T10:31:16.715Z,47.80
2019-03-28T10:33:42.583Z,48.30
2019-03-28T10:36:11.393Z,48.10
2019-03-28T10:38:40.270Z,48.70
2019-03-28T10:41:09.192Z,47.70
2019-03-28T10:43:39.365Z,46.80
2019-03-28T10:46:08.509Z,46.10
2019-03-28T10:48:37.391Z,46.00
2019-03-28T10:51:06.358Z,46.20
2019-03-28T10:53:35.246Z,46.70
2019-03-28T10:56:04.185Z,47.40
2019-03-28T10:58:35.016Z,47.60
2019-03-28T11:01:05.360Z,48.00
2019-03-28T11:03:34.341Z,47.60
2019-03-28T11:06:03.435Z,46.90
2019-03-28T11:08:36.406Z,45.50
2019-03-28T11:11:04.632Z,46.20
2019-03-28T11:13:33.978Z,45.80
2019-03-28T11:16:02.782Z,45.10
2019-03-28T11:18:31.767Z,44.60
2019-03-28T11:21:00.641Z,45.10
2019-03-28T11:23:29.498Z,44.70
2019-03-28T11:25:58.775Z,42.80
2019-03-28T11:28:32.577Z,42.50
2019-03-28T11:31:01.646Z,42.70
2019-03-28T11:33:30.852Z,42.60
2019-03-28T11:35:59.742Z,42.50
2019-03-28T11:38:29.046Z,41.90
2019-03-28T11:40:57.853Z,40.80
2019-03-28T11:43:26.686Z,40.80
2019-03-28T11:45:55.773Z,40.60
2019-03-28T11:48:24.631Z,40.30
2019-03-28T11:50:54.451Z,41.30
2019-03-28T11:53:23.456Z,41.90
2019-03-28T11:55:52.308Z,42.10
2019-03-28T11:58:21.186Z,40.90
2019-03-28T12:00:54.524Z,41.10
2019-03-28T12:03:24.850Z,40.70
2019-03-28T12:05:55.276Z,40.90
2019-03-28T12:08:24.337Z,41.00
2019-03-28T12:10:53.267Z,40.30
2019-03-28T12:13:22.120Z,39.10
2019-03-28T12:15:52.256Z,38.60
2019-03-28T12:18:21.281Z,38.60
2019-03-28T12:20:50.054Z,38.30
2019-03-28T12:23:18.909Z,37.20
2019-03-28T12:25:47.831Z,37.20
2019-03-28T12:28:16.684Z,36.60
2019-03-28T12:30:45.615Z,36.20
2019-03-28T12:33:14.704Z,35.70
2019-03-28T12:35:43.602Z,35.60
2019-03-28T12:38:14.261Z,34.70
2019-03-28T12:40:43.212Z,34.80
2019-03-28T12:43:12.021Z,35.20
2019-03-28T12:45:41.006Z,34.30
2019-03-28T12:48:10.404Z,36.00
2019-03-28T12:50:39.321Z,36.10
2019-03-28T12:53:08.107Z,36.20
2019-03-28T12:55:37.041Z,35.80
2019-03-28T12:58:05.884Z,36.80
2019-03-28T13:00:36.147Z,36.20
2019-03-28T13:03:05.607Z,35.20
2019-03-28T13:05:35.091Z,35.50
2019-03-28T13:08:07.648Z,34.80
2019-03-28T13:10:36.491Z,34.60
2019-03-28T13:13:08.438Z,35.90
2019-03-28T13:15:39.944Z,35.30
2019-03-28T13:18:09.255Z,35.50
2019-03-28T13:20:38.612Z,35.20
2019-03-28T13:23:07.620Z,35.50
2019-03-28T13:25:50.698Z,36.50
2019-03-28T13:28:19.883Z,36.90
2019-03-28T13:30:48.881Z,36.50
2019-03-28T13:33:18.173Z,36.90
2019-03-28T13:35:47.476Z,35.90
2019-03-28T13:38:29.147Z,35.30
2019-03-28T13:40:58.898Z,35.00
2019-03-28T13:43:27.850Z,34.50
2019-03-28T13:45:56.865Z,35.20
2019-03-28T13:48:26.266Z,34.60
2019-03-28T13:50:55.084Z,34.80
2019-03-28T13:53:24.313Z,34.50
2019-03-28T13:55:53.199Z,34.90
2019-03-28T13:58:22.249Z,35.20
2019-03-28T14:00:54.404Z,34.20
2019-03-28T14:03:22.284Z,33.70
2019-03-28T14:05:51.196Z,33.20
2019-03-28T14:08:20.167Z,33.50
2019-03-28T14:10:49.055Z,33.20
2019-03-28T14:13:17.974Z,33.10
2019-03-28T14:15:47.062Z,33.60
2019-03-28T14:18:15.938Z,34.20
2019-03-28T14:20:44.923Z,34.40
2019-03-28T14:23:14.797Z,34.50
2019-03-28T14:25:44.419Z,34.70
2019-03-28T14:28:13.521Z,34.50
2019-03-28T14:30:42.477Z,33.90
2019-03-28T14:33:15.627Z,32.50
2019-03-28T14:35:43.555Z,31.80
2019-03-28T14:38:12.798Z,32.10
2019-03-28T14:40:47.514Z,33.20
2019-03-28T14:43:16.576Z,34.40
2019-03-28T14:45:45.923Z,34.90
2019-03-28T14:48:14.974Z,35.30
2019-03-28T14:50:45.035Z,35.80
2019-03-28T14:53:14.197Z,36.50
2019-03-28T14:55:43.324Z,36.80
2019-03-28T14:58:12.352Z,37.80
2019-03-28T15:00:50.507Z,36.90
2019-03-28T15:03:26.084Z,37.10
2019-03-28T15:05:51.173Z,36.90
2019-03-28T15:08:20.196Z,36.90
2019-03-28T15:10:49.272Z,36.30
2019-03-28T15:13:18.310Z,37.00
2019-03-28T15:15:48.518Z,36.50
2019-03-28T15:18:17.752Z,36.50
2019-03-28T15:20:46.973Z,36.00
2019-03-28T15:23:17.393Z,36.40
2019-03-28T15:25:46.825Z,36.50
2019-03-28T15:28:16.259Z,36.40
2019-03-28T15:30:46.101Z,36.50
2019-03-28T15:33:16.208Z,36.50
2019-03-28T15:35:46.826Z,36.80
2019-03-28T15:38:17.144Z,36.80
2019-03-28T15:40:49.191Z,37.00
2019-03-28T15:43:18.806Z,37.10
2019-03-28T15:45:48.461Z,36.70
2019-03-28T15:48:18.593Z,36.90
2019-03-28T15:50:47.913Z,36.10
2019-03-28T15:53:17.503Z,36.00
2019-03-28T15:55:46.579Z,35.90
2019-03-28T15:58:22.976Z,36.10
2019-03-28T16:00:46.241Z,36.20
2019-03-28T16:03:15.197Z,36.50
2019-03-28T16:05:57.207Z,36.70
2019-03-28T16:08:14.649Z,36.90
2019-03-28T16:10:47.371Z,36.20
2019-03-28T16:13:17.581Z,36.20
2019-03-28T16:15:46.858Z,36.50
2019-03-28T16:18:16.064Z,37.30
2019-03-28T16:20:45.235Z,37.20
2019-03-28T16:23:14.258Z,37.20
2019-03-28T16:25:43.100Z,37.40
2019-03-28T16:28:12.036Z,37.10
2019-03-28T16:30:43.706Z,37.30
2019-03-28T16:33:13.004Z,37.50
2019-03-28T16:35:41.936Z,37.60
2019-03-28T16:38:11.163Z,37.60
2019-03-28T16:40:40.186Z,37.70
2019-03-28T16:43:10.470Z,37.90
2019-03-28T16:45:39.503Z,38.20
2019-03-28T16:48:08.592Z,38.40
2019-03-28T16:50:37.457Z,39.00
2019-03-28T16:53:06.313Z,39.00
2019-03-28T16:55:35.330Z,39.30
2019-03-28T16:58:04.391Z,39.50
2019-03-28T17:00:38.022Z,39.80
2019-03-28T17:03:07.574Z,39.80
2019-03-28T17:05:36.750Z,40.30
2019-03-28T17:08:06.434Z,40.60
2019-03-28T17:10:49.913Z,40.80
2019-03-28T17:13:18.714Z,40.90
2019-03-28T17:15:47.677Z,41.50
2019-03-28T17:18:18.615Z,41.50
2019-03-28T17:20:47.336Z,41.50
2019-03-28T17:23:16.231Z,41.60
2019-03-28T17:25:45.165Z,41.90
2019-03-28T17:28:14.057Z,41.90
2019-03-28T17:30:42.975Z,42.20
2019-03-28T17:33:13.570Z,42.20
2019-03-28T17:35:42.759Z,42.20
2019-03-28T17:38:11.669Z,42.60
2019-03-28T17:40:40.585Z,42.60
2019-03-28T17:43:09.766Z,42.70
2019-03-28T17:45:38.767Z,42.70
2019-03-28T17:48:07.774Z,42.70
2019-03-28T17:50:36.776Z,42.90
2019-03-28T17:53:05.631Z,43.00
2019-03-28T17:55:35.788Z,43.30
2019-03-28T17:58:04.960Z,43.80
2019-03-28T18:00:36.314Z,43.90
2019-03-28T18:03:09.474Z,43.80
2019-03-28T18:05:36.237Z,43.80
2019-03-28T18:08:05.403Z,44.20
2019-03-28T18:10:34.518Z,44.60
2019-03-28T18:13:03.539Z,44.70
2019-03-28T18:15:32.531Z,44.90
2019-03-28T18:18:01.476Z,44.90
2019-03-28T18:20:30.332Z,44.90
2019-03-28T18:23:00.331Z,45.10
2019-03-28T18:25:30.440Z,45.10
2019-03-28T18:27:59.556Z,44.90
2019-03-28T18:30:28.744Z,45.00
2019-03-28T18:32:57.860Z,45.20
2019-03-28T18:35:26.715Z,45.20
2019-03-28T18:37:55.733Z,45.50
2019-03-28T18:40:24.783Z,45.70
2019-03-28T18:42:53.699Z,45.90
2019-03-28T18:45:22.511Z,46.10
2019-03-28T18:47:51.769Z,46.30
2019-03-28T18:50:20.808Z,46.40
2019-03-28T18:52:50.813Z,46.60
2019-03-28T18:55:20.789Z,47.00
2019-03-28T18:57:49.931Z,47.30
2019-03-28T19:00:20.461Z,47.60
2019-03-28T19:02:49.637Z,48.10
2019-03-28T19:05:20.052Z,48.20
2019-03-28T19:07:49.606Z,48.50
2019-03-28T19:10:18.776Z,48.70
2019-03-28T19:12:48.116Z,48.80
2019-03-28T19:15:17.971Z,48.30
2019-03-28T19:17:46.946Z,48.50
2019-03-28T19:20:16.041Z,48.20
2019-03-28T19:22:45.289Z,49.20
2019-03-28T19:25:14.328Z,48.30
2019-03-28T19:27:44.814Z,48.40
2019-03-28T19:30:14.102Z,48.50
2019-03-28T19:32:43.003Z,48.60
2019-03-28T19:35:12.366Z,48.50
2019-03-28T19:37:41.728Z,48.40
2019-03-28T19:40:12.368Z,48.70
2019-03-28T19:42:41.279Z,49.20
2019-03-28T19:45:12.347Z,49.40
2019-03-28T19:47:42.277Z,49.40
2019-03-28T19:50:22.323Z,49.40
2019-03-28T19:52:51.775Z,49.70
2019-03-28T19:55:23.465Z,49.80
2019-03-28T19:57:52.758Z,50.00
2019-03-28T20:00:21.733Z,50.20
2019-03-28T20:02:50.653Z,50.40
2019-03-28T20:05:19.508Z,50.30
2019-03-28T20:07:48.399Z,50.50
2019-03-28T20:10:18.569Z,50.50
2019-03-28T20:12:47.837Z,50.70
2019-03-28T20:15:16.891Z,50.70
2019-03-28T20:17:47.957Z,50.70
2019-03-28T20:20:17.122Z,50.90
2019-03-28T20:22:46.093Z,51.40
2019-03-28T20:25:15.012Z,51.50
2019-03-28T20:27:44.368Z,51.90
2019-03-28T20:30:13.309Z,51.80
2019-03-28T20:32:42.314Z,52.10
2019-03-28T20:35:11.707Z,52.40
2019-03-28T20:37:42.503Z,52.60
2019-03-28T20:40:11.910Z,52.80
2019-03-28T20:42:41.626Z,53.00
2019-03-28T20:45:11.238Z,53.50
2019-03-28T20:47:40.197Z,53.70
2019-03-28T20:50:12.870Z,54.00
2019-03-28T20:52:41.792Z,54.40
2019-03-28T20:55:11.594Z,54.70
2019-03-28T20:57:40.646Z,54.60
2019-03-28T21:00:11.370Z,54.90
2019-03-28T21:02:40.341Z,55.20
2019-03-28T21:05:10.596Z,54.90
2019-03-28T21:07:39.657Z,55.10
2019-03-28T21:10:22.587Z,55.50
2019-03-28T21:12:51.558Z,56.10
2019-03-28T21:15:20.524Z,55.80
2019-03-28T21:17:49.392Z,56.00
2019-03-28T21:20:19.731Z,56.20
2019-03-28T21:22:51.746Z,56.50
2019-03-28T21:25:20.678Z,57.00
2019-03-28T21:27:49.872Z,57.30
2019-03-28T21:30:20.350Z,57.80
2019-03-28T21:32:55.408Z,57.90
2019-03-28T21:35:20.220Z,58.20
2019-03-28T21:37:49.080Z,58.50
2019-03-28T21:40:18.011Z,58.40
2019-03-28T21:42:46.843Z,59.20
2019-03-28T21:45:15.891Z,59.60
2019-03-28T21:47:44.702Z,60.20
2019-03-28T21:50:13.618Z,60.20
2019-03-28T21:52:42.494Z,61.20
2019-03-28T21:55:11.752Z,61.80
2019-03-28T21:57:42.538Z,62.10
2019-03-28T22:00:12.242Z,62.30
2019-03-28T22:02:41.148Z,62.60
2019-03-28T22:05:10.222Z,62.90
2019-03-28T22:07:39.334Z,63.00
2019-03-28T22:10:09.126Z,63.40
2019-03-28T22:12:38.096Z,63.70
2019-03-28T22:15:07.826Z,65.40
2019-03-28T22:17:36.851Z,65.60
2019-03-28T22:20:07.707Z,66.10
2019-03-28T22:22:37.617Z,66.40
2019-03-28T22:25:07.644Z,66.90
2019-03-28T22:27:36.895Z,67.50
2019-03-28T22:30:06.657Z,68.10
2019-03-28T22:32:35.594Z,68.30
2019-03-28T22:35:05.023Z,68.80
2019-03-28T22:37:34.020Z,69.40
2019-03-28T22:40:04.281Z,69.40
2019-03-28T22:42:33.824Z,69.50
2019-03-28T22:45:02.807Z,69.60
2019-03-28T22:47:35.638Z,70.00
2019-03-28T22:50:03.763Z,70.00
2019-03-28T22:52:32.700Z,70.40
2019-03-28T22:55:01.567Z,71.20
2019-03-28T22:57:30.529Z,71.60
2019-03-28T22:59:59.664Z,71.80
2019-03-28T23:02:28.996Z,72.90
2019-03-28T23:04:57.907Z,73.40
2019-03-28T23:07:27.668Z,73.50
2019-03-28T23:09:57.546Z,74.30
2019-03-28T23:12:26.602Z,74.60
2019-03-28T23:14:55.462Z,74.80
2019-03-28T23:17:27.725Z,75.00
2019-03-28T23:19:57.918Z,74.80
2019-03-28T23:22:26.847Z,74.90
2019-03-28T23:24:55.729Z,75.20
2019-03-28T23:27:25.385Z,75.50
2019-03-28T23:29:54.276Z,75.50
2019-03-28T23:32:23.071Z,76.10
2019-03-28T23:34:51.978Z,75.70
2019-03-28T23:37:24.859Z,76.00
2019-03-28T23:39:51.504Z,76.30
2019-03-28T23:42:20.360Z,76.10
2019-03-28T23:44:50.214Z,76.40
2019-03-28T23:47:18.956Z,76.60
2019-03-28T23:49:47.773Z,76.80
2019-03-28T23:52:16.965Z,77.10
2019-03-28T23:54:45.859Z,77.30
2019-03-28T23:57:14.666Z,77.10
2019-03-28T23:59:43.558Z,77.20
